KLM912 EFHK-EPMO
Flight info
| Callsign | KLM912 |
|---|---|
| Flight time | 1h 18m |
| Altitude | 34000 |
| Route | KOIVU Y123 LARTI DCT LUTAL DCT BERIL DCT BOKSU M857 NORNO DCT BULEP M857 GERVI P851 NEPOX |
| Aircraft | B738/M-SDE2E3FGHIRWXY/LB1 |
Departure
| Time | 2026-04-17 08:40 |
|---|---|
| Airport | Helsinki Vantaa Airport (EFHK) |
Arrival
| Time | 2026-04-17 09:58 |
|---|---|
| Airport | Warsaw Modlin Airport (EPMO) |
| Time | Latitude | Longitude | Altitude | Speed | Heading |
|---|---|---|---|---|---|
| 2026-04-17 08:20 | 60.31558 | 24.97327 | 161 ft | 0 kts | 244° |
| 2026-04-17 08:31 | 60.31565 | 24.97356 | 161 ft | 4 kts | 237° |
| 2026-04-17 08:31 | 60.31582 | 24.97398 | 161 ft | 4 kts | 215° |
| 2026-04-17 08:31 | 60.31605 | 24.97417 | 161 ft | 4 kts | 172° |
| 2026-04-17 08:32 | 60.31615 | 24.97412 | 161 ft | 0 kts | 153° |
| 2026-04-17 08:35 | 60.31615 | 24.97413 | 161 ft | 1 kts | 153° |
| 2026-04-17 08:36 | 60.31599 | 24.97429 | 161 ft | 4 kts | 153° |
| 2026-04-17 08:36 | 60.31563 | 24.97466 | 161 ft | 7 kts | 152° |
| 2026-04-17 08:36 | 60.31531 | 24.97567 | 160 ft | 11 kts | 86° |
| 2026-04-17 08:36 | 60.31488 | 24.97695 | 160 ft | 14 kts | 150° |
| 2026-04-17 08:37 | 60.31394 | 24.97793 | 160 ft | 17 kts | 153° |
| 2026-04-17 08:37 | 60.31283 | 24.97909 | 160 ft | 19 kts | 152° |
| 2026-04-17 08:37 | 60.31158 | 24.98040 | 160 ft | 21 kts | 153° |
| 2026-04-17 08:37 | 60.31023 | 24.98176 | 160 ft | 22 kts | 156° |
| 2026-04-17 08:38 | 60.30878 | 24.98296 | 160 ft | 23 kts | 157° |
| 2026-04-17 08:38 | 60.30737 | 24.98418 | 160 ft | 16 kts | 156° |
| 2026-04-17 08:38 | 60.30665 | 24.98567 | 160 ft | 15 kts | 99° |
| 2026-04-17 08:38 | 60.30709 | 24.98746 | 157 ft | 16 kts | 37° |
| 2026-04-17 08:39 | 60.30807 | 24.98725 | 156 ft | 19 kts | 333° |
| 2026-04-17 08:39 | 60.31057 | 24.98465 | 155 ft | 68 kts | 333° |
| 2026-04-17 08:39 | 60.31650 | 24.97857 | 151 ft | 122 kts | 333° |
| 2026-04-17 08:39 | 60.32532 | 24.96960 | 318 ft | 150 kts | 334° |
| 2026-04-17 08:40 | 60.33450 | 24.96045 | 931 ft | 151 kts | 329° |
| 2026-04-17 08:40 | 60.34264 | 24.94586 | 1413 ft | 165 kts | 315° |
| 2026-04-17 08:40 | 60.34931 | 24.92572 | 1913 ft | 179 kts | 298° |
| 2026-04-17 08:40 | 60.35292 | 24.90048 | 2467 ft | 196 kts | 279° |
| 2026-04-17 08:41 | 60.35210 | 24.87168 | 3012 ft | 217 kts | 258° |
| 2026-04-17 08:41 | 60.34582 | 24.84276 | 3543 ft | 238 kts | 240° |
| 2026-04-17 08:41 | 60.33711 | 24.81248 | 4111 ft | 255 kts | 242° |
| 2026-04-17 08:41 | 60.32846 | 24.78040 | 4894 ft | 270 kts | 243° |
| 2026-04-17 08:42 | 60.31947 | 24.74599 | 5641 ft | 283 kts | 244° |
| 2026-04-17 08:42 | 60.31019 | 24.71065 | 6581 ft | 288 kts | 243° |
| 2026-04-17 08:42 | 60.30283 | 24.68819 | 7181 ft | 292 kts | 230° |
| 2026-04-17 08:42 | 60.28702 | 24.66241 | 8140 ft | 296 kts | 207° |
| 2026-04-17 08:43 | 60.26745 | 24.64965 | 9033 ft | 298 kts | 191° |
| 2026-04-17 08:43 | 60.24682 | 24.64137 | 9871 ft | 304 kts | 189° |
| 2026-04-17 08:43 | 60.22577 | 24.63392 | 10627 ft | 315 kts | 189° |
| 2026-04-17 08:43 | 60.20361 | 24.62603 | 11132 ft | 332 kts | 189° |
| 2026-04-17 08:44 | 60.18037 | 24.61727 | 11600 ft | 348 kts | 190° |
| 2026-04-17 08:44 | 60.15607 | 24.60781 | 12199 ft | 360 kts | 191° |
| 2026-04-17 08:44 | 60.13128 | 24.59812 | 12956 ft | 365 kts | 191° |
| 2026-04-17 08:44 | 60.10618 | 24.58845 | 13759 ft | 369 kts | 190° |
| 2026-04-17 08:45 | 60.08066 | 24.58021 | 14508 ft | 374 kts | 183° |
| 2026-04-17 08:45 | 60.05459 | 24.58153 | 15294 ft | 377 kts | 171° |
| 2026-04-17 08:45 | 60.02873 | 24.59107 | 16051 ft | 380 kts | 167° |
| 2026-04-17 08:45 | 60.00268 | 24.60156 | 16800 ft | 384 kts | 167° |
| 2026-04-17 08:46 | 59.97638 | 24.61240 | 17522 ft | 388 kts | 166° |
| 2026-04-17 08:46 | 59.94980 | 24.62329 | 18244 ft | 392 kts | 166° |
| 2026-04-17 08:46 | 59.92297 | 24.63410 | 18942 ft | 395 kts | 166° |
| 2026-04-17 08:46 | 59.89622 | 24.64475 | 19588 ft | 400 kts | 166° |
| 2026-04-17 08:47 | 59.86878 | 24.65539 | 20231 ft | 404 kts | 169° |
| 2026-04-17 08:47 | 59.84047 | 24.65841 | 20861 ft | 411 kts | 181° |
| 2026-04-17 08:47 | 59.81198 | 24.65004 | 21467 ft | 417 kts | 191° |
| 2026-04-17 08:47 | 59.78315 | 24.63685 | 22038 ft | 422 kts | 192° |
| 2026-04-17 08:48 | 59.75448 | 24.62310 | 22595 ft | 426 kts | 192° |
| 2026-04-17 08:48 | 59.72595 | 24.60926 | 23129 ft | 430 kts | 192° |
| 2026-04-17 08:48 | 59.69673 | 24.59533 | 23636 ft | 434 kts | 191° |
| 2026-04-17 08:48 | 59.66721 | 24.58159 | 24141 ft | 437 kts | 191° |
| 2026-04-17 08:49 | 59.63735 | 24.56876 | 24621 ft | 441 kts | 189° |
| 2026-04-17 08:49 | 59.60706 | 24.55718 | 25100 ft | 444 kts | 188° |
| 2026-04-17 08:49 | 59.57663 | 24.54602 | 25594 ft | 446 kts | 188° |
| 2026-04-17 08:49 | 59.54607 | 24.53442 | 26046 ft | 449 kts | 189° |
| 2026-04-17 08:50 | 59.51526 | 24.52217 | 26473 ft | 452 kts | 189° |
| 2026-04-17 08:50 | 59.48445 | 24.50968 | 26887 ft | 455 kts | 189° |
| 2026-04-17 08:50 | 59.45327 | 24.49720 | 27287 ft | 457 kts | 189° |
| 2026-04-17 08:50 | 59.42204 | 24.48497 | 27683 ft | 460 kts | 189° |
| 2026-04-17 08:51 | 59.39048 | 24.47276 | 28037 ft | 463 kts | 189° |
| 2026-04-17 08:51 | 59.35880 | 24.46050 | 28392 ft | 465 kts | 189° |
| 2026-04-17 08:51 | 59.32698 | 24.44810 | 28739 ft | 467 kts | 189° |
| 2026-04-17 08:51 | 59.29499 | 24.43559 | 29062 ft | 470 kts | 189° |
| 2026-04-17 08:52 | 59.26280 | 24.42304 | 29289 ft | 475 kts | 189° |
| 2026-04-17 08:52 | 59.23029 | 24.41043 | 29553 ft | 477 kts | 189° |
| 2026-04-17 08:52 | 59.19763 | 24.39782 | 29922 ft | 478 kts | 189° |
| 2026-04-17 08:52 | 59.16545 | 24.38541 | 30277 ft | 478 kts | 189° |
| 2026-04-17 08:53 | 59.13286 | 24.37285 | 30662 ft | 477 kts | 189° |
| 2026-04-17 08:53 | 59.10033 | 24.36032 | 31067 ft | 476 kts | 189° |
| 2026-04-17 08:53 | 59.06786 | 24.34785 | 31443 ft | 475 kts | 189° |
| 2026-04-17 08:53 | 59.03543 | 24.33543 | 31810 ft | 475 kts | 189° |
| 2026-04-17 08:54 | 59.00303 | 24.32305 | 32171 ft | 474 kts | 189° |
| 2026-04-17 08:54 | 58.97068 | 24.31071 | 32536 ft | 473 kts | 189° |
| 2026-04-17 08:54 | 58.93840 | 24.29840 | 32909 ft | 472 kts | 189° |
| 2026-04-17 08:54 | 58.90616 | 24.28614 | 33241 ft | 472 kts | 189° |
| 2026-04-17 08:55 | 58.87391 | 24.27389 | 33600 ft | 471 kts | 189° |
| 2026-04-17 08:55 | 58.84180 | 24.26173 | 33938 ft | 470 kts | 189° |
| 2026-04-17 08:55 | 58.80971 | 24.24961 | 34147 ft | 472 kts | 189° |
| 2026-04-17 08:56 | 58.74487 | 24.22517 | 34162 ft | 474 kts | 189° |
| 2026-04-17 08:56 | 58.68079 | 24.20107 | 34170 ft | 468 kts | 189° |
| 2026-04-17 08:57 | 58.61712 | 24.17729 | 34178 ft | 470 kts | 189° |
| 2026-04-17 08:57 | 58.55294 | 24.15335 | 34174 ft | 470 kts | 189° |
| 2026-04-17 08:58 | 58.48876 | 24.12950 | 34172 ft | 469 kts | 189° |
| 2026-04-17 08:58 | 58.42467 | 24.10581 | 34171 ft | 469 kts | 189° |
| 2026-04-17 08:59 | 58.36058 | 24.08218 | 34170 ft | 469 kts | 189° |
| 2026-04-17 08:59 | 58.29647 | 24.05862 | 34169 ft | 469 kts | 189° |
| 2026-04-17 09:00 | 58.23223 | 24.03511 | 34170 ft | 470 kts | 189° |
| 2026-04-17 09:00 | 58.16799 | 24.01169 | 34169 ft | 470 kts | 189° |
| 2026-04-17 09:01 | 58.10378 | 23.98839 | 34170 ft | 470 kts | 189° |
| 2026-04-17 09:01 | 58.03961 | 23.96515 | 34170 ft | 470 kts | 189° |
| 2026-04-17 09:02 | 57.97585 | 23.94217 | 34169 ft | 470 kts | 189° |
| 2026-04-17 09:02 | 57.91159 | 23.91910 | 34170 ft | 470 kts | 189° |
| 2026-04-17 09:03 | 57.84730 | 23.89691 | 34169 ft | 470 kts | 188° |
| 2026-04-17 09:03 | 57.78281 | 23.87633 | 34169 ft | 470 kts | 188° |
| 2026-04-17 09:04 | 57.71843 | 23.85513 | 34169 ft | 470 kts | 188° |
| 2026-04-17 09:04 | 57.65404 | 23.83382 | 34169 ft | 470 kts | 188° |
| 2026-04-17 09:05 | 57.58958 | 23.81289 | 34164 ft | 470 kts | 188° |
| 2026-04-17 09:05 | 57.52508 | 23.79192 | 34160 ft | 470 kts | 188° |
| 2026-04-17 09:06 | 57.46094 | 23.77108 | 34161 ft | 471 kts | 188° |
| 2026-04-17 09:06 | 57.39640 | 23.75027 | 34158 ft | 471 kts | 188° |
| 2026-04-17 09:07 | 57.33170 | 23.72946 | 34152 ft | 472 kts | 188° |
| 2026-04-17 09:07 | 57.26698 | 23.70870 | 34151 ft | 472 kts | 188° |
| 2026-04-17 09:08 | 57.20216 | 23.68800 | 34151 ft | 473 kts | 188° |
| 2026-04-17 09:08 | 57.13732 | 23.66734 | 34151 ft | 473 kts | 188° |
| 2026-04-17 09:09 | 57.07241 | 23.64675 | 34145 ft | 473 kts | 188° |
| 2026-04-17 09:09 | 57.00759 | 23.62626 | 34142 ft | 473 kts | 188° |
| 2026-04-17 09:10 | 56.91016 | 23.59560 | 34141 ft | 474 kts | 188° |
| 2026-04-17 09:10 | 56.84505 | 23.57521 | 34143 ft | 474 kts | 188° |
| 2026-04-17 09:11 | 56.77996 | 23.55489 | 34142 ft | 475 kts | 188° |
| 2026-04-17 09:11 | 56.71481 | 23.53460 | 34141 ft | 475 kts | 188° |
| 2026-04-17 09:12 | 56.65000 | 23.51452 | 34143 ft | 475 kts | 188° |
| 2026-04-17 09:12 | 56.58477 | 23.49437 | 34141 ft | 476 kts | 188° |
| 2026-04-17 09:13 | 56.51942 | 23.47425 | 34142 ft | 477 kts | 188° |
| 2026-04-17 09:13 | 56.45401 | 23.45418 | 34143 ft | 477 kts | 188° |
| 2026-04-17 09:14 | 56.38856 | 23.43417 | 34143 ft | 477 kts | 188° |
| 2026-04-17 09:14 | 56.32293 | 23.41648 | 34144 ft | 476 kts | 184° |
| 2026-04-17 09:15 | 56.25695 | 23.40661 | 34142 ft | 476 kts | 183° |
| 2026-04-17 09:15 | 56.19103 | 23.39489 | 34143 ft | 476 kts | 185° |
| 2026-04-17 09:16 | 56.12515 | 23.38146 | 34155 ft | 477 kts | 184° |
| 2026-04-17 09:16 | 56.05908 | 23.36959 | 34143 ft | 476 kts | 184° |
| 2026-04-17 09:17 | 55.99314 | 23.35758 | 34144 ft | 476 kts | 184° |
| 2026-04-17 09:17 | 55.92725 | 23.34522 | 34144 ft | 477 kts | 184° |
| 2026-04-17 09:18 | 55.86104 | 23.33310 | 34144 ft | 478 kts | 184° |
| 2026-04-17 09:18 | 55.79487 | 23.32103 | 34143 ft | 478 kts | 184° |
| 2026-04-17 09:19 | 55.72865 | 23.30891 | 34142 ft | 478 kts | 184° |
| 2026-04-17 09:19 | 55.66247 | 23.29688 | 34143 ft | 477 kts | 184° |
| 2026-04-17 09:20 | 55.59685 | 23.28500 | 34142 ft | 477 kts | 184° |
| 2026-04-17 09:20 | 55.53068 | 23.27305 | 34143 ft | 478 kts | 185° |
| 2026-04-17 09:21 | 55.46460 | 23.26115 | 34142 ft | 478 kts | 185° |
| 2026-04-17 09:21 | 55.39831 | 23.24928 | 34144 ft | 478 kts | 185° |
| 2026-04-17 09:22 | 55.33199 | 23.23741 | 34143 ft | 478 kts | 185° |
| 2026-04-17 09:22 | 55.26586 | 23.22562 | 34143 ft | 477 kts | 185° |
| 2026-04-17 09:23 | 55.19976 | 23.21388 | 34136 ft | 478 kts | 185° |
| 2026-04-17 09:23 | 55.13351 | 23.20215 | 34134 ft | 478 kts | 185° |
| 2026-04-17 09:24 | 55.06776 | 23.19057 | 34135 ft | 478 kts | 185° |
| 2026-04-17 09:24 | 55.00161 | 23.17894 | 34133 ft | 478 kts | 185° |
| 2026-04-17 09:25 | 54.93545 | 23.16733 | 34134 ft | 478 kts | 185° |
| 2026-04-17 09:25 | 54.86920 | 23.15576 | 34132 ft | 478 kts | 185° |
| 2026-04-17 09:26 | 54.80311 | 23.14426 | 34132 ft | 477 kts | 185° |
| 2026-04-17 09:26 | 54.73693 | 23.13278 | 34136 ft | 478 kts | 185° |
| 2026-04-17 09:27 | 54.67121 | 23.12141 | 34150 ft | 478 kts | 185° |
| 2026-04-17 09:27 | 54.60506 | 23.11001 | 34151 ft | 477 kts | 185° |
| 2026-04-17 09:28 | 54.53897 | 23.09865 | 34154 ft | 477 kts | 185° |
| 2026-04-17 09:28 | 54.47279 | 23.08732 | 34162 ft | 478 kts | 185° |
| 2026-04-17 09:29 | 54.40661 | 23.07602 | 34163 ft | 478 kts | 185° |
| 2026-04-17 09:29 | 54.34039 | 23.06476 | 34163 ft | 478 kts | 185° |
| 2026-04-17 09:30 | 54.27609 | 23.03803 | 34184 ft | 477 kts | 201° |
| 2026-04-17 09:30 | 54.22460 | 23.00395 | 34173 ft | 478 kts | 202° |
| 2026-04-17 09:31 | 54.16282 | 22.96215 | 34172 ft | 477 kts | 202° |
| 2026-04-17 09:31 | 54.10089 | 22.92094 | 34172 ft | 477 kts | 202° |
| 2026-04-17 09:32 | 54.03748 | 22.88804 | 34175 ft | 477 kts | 193° |
| 2026-04-17 09:32 | 53.97253 | 22.86300 | 34172 ft | 479 kts | 193° |
| 2026-04-17 09:33 | 53.90757 | 22.83863 | 34170 ft | 475 kts | 194° |
| 2026-04-17 09:33 | 53.84308 | 22.81417 | 34171 ft | 476 kts | 194° |
| 2026-04-17 09:34 | 53.77828 | 22.78964 | 34172 ft | 478 kts | 194° |
| 2026-04-17 09:34 | 53.71339 | 22.76524 | 34167 ft | 480 kts | 194° |
| 2026-04-17 09:35 | 53.64860 | 22.74093 | 34176 ft | 475 kts | 194° |
| 2026-04-17 09:35 | 53.58393 | 22.71672 | 34178 ft | 477 kts | 194° |
| 2026-04-17 09:36 | 53.51913 | 22.69255 | 34178 ft | 477 kts | 194° |
| 2026-04-17 09:36 | 53.45478 | 22.66862 | 34179 ft | 477 kts | 194° |
| 2026-04-17 09:37 | 53.39007 | 22.64463 | 34179 ft | 476 kts | 194° |
| 2026-04-17 09:37 | 53.32536 | 22.62072 | 34179 ft | 475 kts | 194° |
| 2026-04-17 09:38 | 53.29280 | 22.60871 | 33649 ft | 483 kts | 194° |
| 2026-04-17 09:38 | 53.25997 | 22.59661 | 32742 ft | 483 kts | 194° |
| 2026-04-17 09:38 | 53.22711 | 22.58454 | 31931 ft | 480 kts | 194° |
| 2026-04-17 09:38 | 53.19468 | 22.57266 | 31210 ft | 476 kts | 194° |
| 2026-04-17 09:39 | 53.16250 | 22.56089 | 30541 ft | 471 kts | 194° |
| 2026-04-17 09:39 | 53.13066 | 22.54925 | 29864 ft | 466 kts | 194° |
| 2026-04-17 09:39 | 53.09913 | 22.53772 | 29192 ft | 462 kts | 194° |
| 2026-04-17 09:39 | 53.06788 | 22.52631 | 28513 ft | 458 kts | 194° |
| 2026-04-17 09:40 | 53.03689 | 22.51503 | 27849 ft | 454 kts | 194° |
| 2026-04-17 09:40 | 53.00618 | 22.50386 | 27177 ft | 450 kts | 194° |
| 2026-04-17 09:40 | 52.97573 | 22.49281 | 26502 ft | 446 kts | 194° |
| 2026-04-17 09:40 | 52.94555 | 22.48186 | 25838 ft | 442 kts | 194° |
| 2026-04-17 09:41 | 52.91561 | 22.47102 | 25157 ft | 439 kts | 195° |
| 2026-04-17 09:41 | 52.88591 | 22.46029 | 24481 ft | 435 kts | 195° |
| 2026-04-17 09:41 | 52.85647 | 22.44966 | 23817 ft | 431 kts | 195° |
| 2026-04-17 09:41 | 52.82728 | 22.43904 | 23137 ft | 427 kts | 197° |
| 2026-04-17 09:42 | 52.80003 | 22.42143 | 22464 ft | 415 kts | 214° |
| 2026-04-17 09:42 | 52.77737 | 22.39329 | 21811 ft | 402 kts | 231° |
| 2026-04-17 09:42 | 52.76092 | 22.35724 | 21145 ft | 387 kts | 247° |
| 2026-04-17 09:42 | 52.75107 | 22.31683 | 20497 ft | 375 kts | 257° |
| 2026-04-17 09:43 | 52.74320 | 22.27647 | 19828 ft | 372 kts | 258° |
| 2026-04-17 09:43 | 52.73555 | 22.23595 | 19159 ft | 368 kts | 258° |
| 2026-04-17 09:43 | 52.72791 | 22.19577 | 18482 ft | 365 kts | 258° |
| 2026-04-17 09:43 | 52.72022 | 22.15617 | 17811 ft | 361 kts | 257° |
| 2026-04-17 09:44 | 52.71249 | 22.11695 | 17133 ft | 358 kts | 257° |
| 2026-04-17 09:44 | 52.70482 | 22.07814 | 16467 ft | 354 kts | 257° |
| 2026-04-17 09:44 | 52.69726 | 22.03976 | 15835 ft | 349 kts | 257° |
| 2026-04-17 09:44 | 52.68984 | 22.00207 | 15297 ft | 342 kts | 257° |
| 2026-04-17 09:45 | 52.68256 | 21.96510 | 14744 ft | 335 kts | 257° |
| 2026-04-17 09:45 | 52.67542 | 21.92890 | 14199 ft | 329 kts | 257° |
| 2026-04-17 09:45 | 52.66838 | 21.89323 | 13650 ft | 324 kts | 257° |
| 2026-04-17 09:45 | 52.66143 | 21.85818 | 13098 ft | 320 kts | 256° |
| 2026-04-17 09:46 | 52.65466 | 21.82410 | 12495 ft | 316 kts | 256° |
| 2026-04-17 09:46 | 52.64779 | 21.78962 | 11875 ft | 315 kts | 256° |
| 2026-04-17 09:46 | 52.64101 | 21.75554 | 11327 ft | 313 kts | 256° |
| 2026-04-17 09:46 | 52.63425 | 21.72167 | 10804 ft | 310 kts | 256° |
| 2026-04-17 09:47 | 52.62756 | 21.68828 | 10495 ft | 300 kts | 256° |
| 2026-04-17 09:47 | 52.62115 | 21.65646 | 10380 ft | 285 kts | 256° |
| 2026-04-17 09:47 | 52.61506 | 21.62618 | 10273 ft | 276 kts | 256° |
| 2026-04-17 09:47 | 52.60908 | 21.59618 | 10081 ft | 277 kts | 256° |
| 2026-04-17 09:48 | 52.60312 | 21.56645 | 9758 ft | 270 kts | 256° |
| 2026-04-17 09:48 | 52.59722 | 21.53720 | 9463 ft | 269 kts | 255° |
| 2026-04-17 09:48 | 52.59136 | 21.50818 | 9163 ft | 266 kts | 255° |
| 2026-04-17 09:48 | 52.58553 | 21.47932 | 8867 ft | 265 kts | 255° |
| 2026-04-17 09:49 | 52.57973 | 21.45067 | 8569 ft | 264 kts | 255° |
| 2026-04-17 09:49 | 52.57391 | 21.42204 | 8282 ft | 262 kts | 255° |
| 2026-04-17 09:49 | 52.56815 | 21.39372 | 7994 ft | 261 kts | 255° |
| 2026-04-17 09:49 | 52.56243 | 21.36547 | 7696 ft | 262 kts | 255° |
| 2026-04-17 09:50 | 52.55668 | 21.33719 | 7405 ft | 260 kts | 255° |
| 2026-04-17 09:50 | 52.55096 | 21.30910 | 7118 ft | 259 kts | 255° |
| 2026-04-17 09:50 | 52.54525 | 21.28120 | 6830 ft | 257 kts | 255° |
| 2026-04-17 09:50 | 52.53953 | 21.25334 | 6555 ft | 257 kts | 255° |
| 2026-04-17 09:51 | 52.53394 | 21.22610 | 6508 ft | 245 kts | 255° |
| 2026-04-17 09:51 | 52.52867 | 21.20052 | 6439 ft | 228 kts | 255° |
| 2026-04-17 09:51 | 52.52373 | 21.17654 | 6249 ft | 217 kts | 256° |
| 2026-04-17 09:51 | 52.51897 | 21.15331 | 5907 ft | 214 kts | 256° |
| 2026-04-17 09:52 | 52.51426 | 21.13030 | 5533 ft | 212 kts | 256° |
| 2026-04-17 09:52 | 52.50962 | 21.10770 | 5159 ft | 211 kts | 256° |
| 2026-04-17 09:52 | 52.50493 | 21.08500 | 4803 ft | 209 kts | 255° |
| 2026-04-17 09:52 | 52.50031 | 21.06276 | 4564 ft | 199 kts | 255° |
| 2026-04-17 09:53 | 52.49597 | 21.04192 | 4331 ft | 189 kts | 256° |
| 2026-04-17 09:53 | 52.49179 | 21.02166 | 4002 ft | 186 kts | 256° |
| 2026-04-17 09:53 | 52.48768 | 21.00166 | 3657 ft | 184 kts | 255° |
| 2026-04-17 09:53 | 52.48358 | 20.98186 | 3455 ft | 181 kts | 255° |
| 2026-04-17 09:54 | 52.48008 | 20.96182 | 3432 ft | 183 kts | 264° |
| 2026-04-17 09:54 | 52.47816 | 20.94175 | 3326 ft | 170 kts | 265° |
| 2026-04-17 09:54 | 52.47639 | 20.92345 | 3253 ft | 156 kts | 265° |
| 2026-04-17 09:54 | 52.47463 | 20.90499 | 3143 ft | 173 kts | 265° |
| 2026-04-17 09:55 | 52.47283 | 20.88552 | 2926 ft | 170 kts | 265° |
| 2026-04-17 09:55 | 52.47108 | 20.86687 | 2731 ft | 161 kts | 265° |
| 2026-04-17 09:55 | 52.46939 | 20.84876 | 2526 ft | 162 kts | 265° |
| 2026-04-17 09:55 | 52.46772 | 20.83059 | 2318 ft | 157 kts | 265° |
| 2026-04-17 09:56 | 52.46613 | 20.81335 | 2093 ft | 153 kts | 265° |
| 2026-04-17 09:56 | 52.46463 | 20.79635 | 1856 ft | 148 kts | 265° |
| 2026-04-17 09:56 | 52.46321 | 20.77974 | 1660 ft | 145 kts | 266° |
| 2026-04-17 09:56 | 52.46179 | 20.76334 | 1471 ft | 144 kts | 264° |
| 2026-04-17 09:57 | 52.46002 | 20.74717 | 1299 ft | 144 kts | 264° |
| 2026-04-17 09:57 | 52.45854 | 20.73104 | 1116 ft | 143 kts | 265° |
| 2026-04-17 09:57 | 52.45703 | 20.71482 | 932 ft | 144 kts | 265° |
| 2026-04-17 09:57 | 52.45555 | 20.69866 | 741 ft | 143 kts | 264° |
| 2026-04-17 09:58 | 52.45403 | 20.68259 | 555 ft | 143 kts | 264° |
| 2026-04-17 09:58 | 52.45256 | 20.66643 | 360 ft | 143 kts | 264° |
| 2026-04-17 09:58 | 52.45132 | 20.65307 | 354 ft | 82 kts | 262° |
| 2026-04-17 09:58 | 52.45067 | 20.64610 | 358 ft | 30 kts | 261° |
| 2026-04-17 09:59 | 52.45017 | 20.64403 | 356 ft | 18 kts | 204° |
| 2026-04-17 09:59 | 52.44898 | 20.64381 | 354 ft | 17 kts | 183° |
| 2026-04-17 09:59 | 52.44785 | 20.64371 | 353 ft | 16 kts | 182° |
| 2026-04-17 09:59 | 52.44712 | 20.64433 | 350 ft | 12 kts | 94° |
| 2026-04-17 10:00 | 52.44725 | 20.64569 | 354 ft | 12 kts | 79° |
| 2026-04-17 10:00 | 52.44739 | 20.64700 | 352 ft | 11 kts | 80° |
| 2026-04-17 10:00 | 52.44747 | 20.64815 | 353 ft | 6 kts | 95° |
| 2026-04-17 10:00 | 52.44733 | 20.64827 | 356 ft | 1 kts | 162° |
| 2026-04-17 10:01 | 52.44726 | 20.64832 | 350 ft | 1 kts | 165° |
| 2026-04-17 10:01 | 52.44717 | 20.64831 | 350 ft | 0 kts | 183° |
| 2026-04-17 10:02 | 52.44710 | 20.64843 | 352 ft | 0 kts | 218° |